createdAt,value
2018-09-13T00:02:35.772Z,3.58
2018-09-13T00:07:15.677Z,3.98
2018-09-13T00:11:56.733Z,3.98
2018-09-13T00:16:36.533Z,4.03
2018-09-13T00:21:16.864Z,4.30
2018-09-13T00:25:57.247Z,5.17
2018-09-13T00:30:37.220Z,5.20
2018-09-13T00:35:17.783Z,4.55
2018-09-13T00:39:59.168Z,5.50
2018-09-13T00:44:39.060Z,4.90
2018-09-13T00:49:18.920Z,5.50
2018-09-13T00:53:59.864Z,5.28
2018-09-13T00:58:40.140Z,6.10
2018-09-13T01:03:20.140Z,5.50
2018-09-13T01:08:00.669Z,6.10
2018-09-13T01:12:41.468Z,6.22
2018-09-13T01:17:22.285Z,7.25
2018-09-13T01:22:02.056Z,6.35
2018-09-13T01:26:42.646Z,5.95
2018-09-13T01:31:22.497Z,6.25
2018-09-13T01:36:03.191Z,6.05
2018-09-13T01:40:42.964Z,6.78
2018-09-13T01:45:22.848Z,6.92
2018-09-13T01:50:02.678Z,7.55
2018-09-13T01:54:42.656Z,7.17
2018-09-13T01:59:22.259Z,7.75
2018-09-13T02:04:02.740Z,8.38
2018-09-13T02:08:43.041Z,8.08
2018-09-13T02:13:22.981Z,8.73
2018-09-13T02:18:02.770Z,7.92
2018-09-13T02:22:42.793Z,9.15
2018-09-13T02:27:22.752Z,8.78
2018-09-13T02:32:02.764Z,8.95
2018-09-13T02:36:42.642Z,8.85
2018-09-13T02:41:22.797Z,8.98
2018-09-13T02:46:03.881Z,9.48
2018-09-13T02:50:43.609Z,9.58
2018-09-13T02:55:23.642Z,9.30
2018-09-13T03:00:04.624Z,8.80
2018-09-13T03:04:44.579Z,9.10
2018-09-13T03:09:24.561Z,9.40
2018-09-13T03:14:05.968Z,10.43
2018-09-13T03:18:46.593Z,10.05
2018-09-13T03:23:27.094Z,10.30
2018-09-13T03:28:07.539Z,10.18
2018-09-13T03:32:47.817Z,9.93
2018-09-13T03:37:28.752Z,9.80
2018-09-13T03:42:09.320Z,10.25
2018-09-13T03:46:50.103Z,10.58
2018-09-13T03:51:30.752Z,10.63
2018-09-13T03:56:12.883Z,10.25
2018-09-13T04:00:54.078Z,10.05
2018-09-13T04:05:34.999Z,10.23
2018-09-13T04:10:15.578Z,9.68
2018-09-13T04:14:56.580Z,10.00
2018-09-13T04:19:46.708Z,10.30
2018-09-13T04:24:26.829Z,9.20
2018-09-13T04:29:06.748Z,10.23
2018-09-13T04:33:46.940Z,12.40
2018-09-13T04:38:26.799Z,13.88
2018-09-13T04:43:06.820Z,11.18
2018-09-13T04:47:46.780Z,12.23
2018-09-13T04:52:29.114Z,10.72
2018-09-13T04:57:09.243Z,11.50
2018-09-13T05:01:49.409Z,10.63
2018-09-13T05:06:29.304Z,11.12
2018-09-13T05:11:11.116Z,11.68
2018-09-13T05:15:51.133Z,11.78
2018-09-13T05:20:31.120Z,12.33
2018-09-13T05:25:12.067Z,12.20
2018-09-13T05:29:52.444Z,12.05
2018-09-13T05:34:34.135Z,11.75
2018-09-13T05:39:15.064Z,12.10
2018-09-13T05:43:55.140Z,12.07
2018-09-13T05:48:35.144Z,12.23
2018-09-13T05:53:15.114Z,12.53
2018-09-13T05:57:56.105Z,13.08
2018-09-13T06:02:36.960Z,11.78
2018-09-13T06:07:17.026Z,12.88
2018-09-13T06:11:57.595Z,13.70
2018-09-13T06:16:37.411Z,13.38
2018-09-13T06:21:18.244Z,14.58
2018-09-13T06:25:59.848Z,16.97
2018-09-13T06:30:39.799Z,13.72
2018-09-13T06:35:20.576Z,13.48
2018-09-13T06:40:01.064Z,13.58
2018-09-13T06:44:40.833Z,16.82
2018-09-13T06:49:21.128Z,18.80
2018-09-13T06:54:01.525Z,20.15
2018-09-13T06:58:42.122Z,19.90
2018-09-13T07:03:22.111Z,19.05
2018-09-13T07:08:02.604Z,18.98
2018-09-13T07:12:43.047Z,18.70
2018-09-13T07:17:24.156Z,18.20
2018-09-13T07:22:04.177Z,18.82
2018-09-13T07:26:44.425Z,19.23
2018-09-13T07:31:24.124Z,19.00
2018-09-13T07:36:03.992Z,18.07
2018-09-13T07:40:45.010Z,18.12
2018-09-13T07:45:25.408Z,18.67
2018-09-13T07:50:05.327Z,18.07
2018-09-13T07:54:45.336Z,19.85
2018-09-13T07:59:26.051Z,19.82
2018-09-13T08:04:06.597Z,18.60
2018-09-13T08:08:47.510Z,20.12
2018-09-13T08:13:27.886Z,20.48
2018-09-13T08:18:09.073Z,18.98
2018-09-13T08:22:49.977Z,21.07
2018-09-13T08:27:30.800Z,19.05
2018-09-13T08:32:11.328Z,19.37
2018-09-13T08:36:51.201Z,18.45
2018-09-13T08:41:30.909Z,19.48
2018-09-13T08:46:11.180Z,18.00
2018-09-13T08:50:52.003Z,19.30
2018-09-13T08:55:31.840Z,19.65
2018-09-13T09:00:14.079Z,19.67
2018-09-13T09:04:53.945Z,20.80
2018-09-13T09:09:33.773Z,18.42
2018-09-13T09:14:13.682Z,18.60
2018-09-13T09:18:53.753Z,18.27
2018-09-13T09:23:33.872Z,18.10
2018-09-13T09:28:14.465Z,18.48
2018-09-13T09:32:55.217Z,18.92
2018-09-13T09:37:35.816Z,18.02
2018-09-13T09:42:16.780Z,18.20
2018-09-13T09:46:56.517Z,18.65
2018-09-13T09:51:37.510Z,17.57
2018-09-13T09:56:17.923Z,17.30
2018-09-13T10:01:03.803Z,16.82
2018-09-13T10:05:43.844Z,17.37
2018-09-13T10:10:24.082Z,17.98
2018-09-13T10:15:09.943Z,17.62
2018-09-13T10:19:55.096Z,16.85
2018-09-13T10:24:40.789Z,15.83
2018-09-13T10:29:27.077Z,15.95
2018-09-13T10:34:12.081Z,16.23
2018-09-13T10:38:57.376Z,15.72
2018-09-13T10:43:42.654Z,16.42
2018-09-13T10:48:26.453Z,17.02
2018-09-13T10:53:10.679Z,16.65
2018-09-13T10:57:51.469Z,16.25
2018-09-13T11:02:32.360Z,17.82
2018-09-13T11:07:12.668Z,19.35
2018-09-13T11:11:52.699Z,19.00
2018-09-13T11:16:32.972Z,19.35
2018-09-13T11:21:14.054Z,18.02
2018-09-13T11:25:54.143Z,17.60
2018-09-13T11:30:34.044Z,18.85
2018-09-13T11:35:13.992Z,19.48
2018-09-13T11:39:54.617Z,20.82
2018-09-13T11:44:34.536Z,20.60
2018-09-13T11:49:14.728Z,22.70
2018-09-13T11:53:54.660Z,21.33
2018-09-13T11:58:34.499Z,24.25
2018-09-13T12:03:15.233Z,25.25
2018-09-13T12:07:55.200Z,25.25
2018-09-13T12:12:35.608Z,25.45
2018-09-13T12:17:16.189Z,26.90
2018-09-13T12:21:57.385Z,24.98
2018-09-13T12:26:37.828Z,23.27
2018-09-13T12:31:18.444Z,21.80
2018-09-13T12:35:59.736Z,21.12
2018-09-13T12:40:39.719Z,21.15
2018-09-13T12:45:19.876Z,19.92
2018-09-13T12:50:00.392Z,19.62
2018-09-13T12:54:41.512Z,20.05
2018-09-13T12:59:22.244Z,18.98
2018-09-13T13:04:02.833Z,20.30
2018-09-13T13:08:42.967Z,20.85
2018-09-13T13:13:22.899Z,21.77
2018-09-13T13:18:04.087Z,22.07
2018-09-13T13:22:44.224Z,20.12
2018-09-13T13:27:24.228Z,22.40
2018-09-13T13:32:04.242Z,24.18
2018-09-13T13:36:44.866Z,23.45
2018-09-13T13:41:25.630Z,24.92
2018-09-13T13:46:06.313Z,22.48
2018-09-13T13:50:46.356Z,23.90
2018-09-13T13:55:26.847Z,24.47
2018-09-13T14:00:07.130Z,24.63
2018-09-13T14:04:47.878Z,25.40
2018-09-13T14:09:28.689Z,24.30
2018-09-13T14:14:09.760Z,24.55
2018-09-13T14:18:49.938Z,27.30
2018-09-13T14:23:29.973Z,24.27
2018-09-13T14:28:10.153Z,26.48
2018-09-13T14:32:50.698Z,26.30
2018-09-13T14:37:30.332Z,27.05
2018-09-13T14:42:10.775Z,28.80
2018-09-13T14:46:50.723Z,30.30
2018-09-13T14:51:41.240Z,29.67
2018-09-13T14:56:20.954Z,28.40
2018-09-13T15:01:00.985Z,28.38
2018-09-13T15:05:40.811Z,28.30
2018-09-13T15:10:20.561Z,27.75
2018-09-13T15:15:00.609Z,26.00
2018-09-13T15:19:40.757Z,26.48
2018-09-13T15:24:20.763Z,26.33
2018-09-13T15:29:00.791Z,25.60
2018-09-13T15:33:40.965Z,26.95
2018-09-13T15:38:21.600Z,25.72
2018-09-13T15:43:02.569Z,26.68
2018-09-13T15:47:42.975Z,26.55
2018-09-13T15:52:23.043Z,25.12
2018-09-13T15:57:03.481Z,23.30
2018-09-13T16:01:44.752Z,25.90
2018-09-13T16:06:24.824Z,25.57
2018-09-13T16:11:05.760Z,24.50
2018-09-13T16:15:45.800Z,25.10
2018-09-13T16:20:26.230Z,26.52
2018-09-13T16:25:05.581Z,27.62
2018-09-13T16:29:45.713Z,25.77
2018-09-13T16:34:26.548Z,27.98
2018-09-13T16:39:22.765Z,27.75
2018-09-13T16:44:05.105Z,26.30
2018-09-13T16:48:45.076Z,21.15
2018-09-13T16:53:24.786Z,19.23
2018-09-13T16:58:06.303Z,20.80
2018-09-13T17:02:47.025Z,19.12
2018-09-13T17:07:28.368Z,19.65
2018-09-13T17:12:08.459Z,18.40
2018-09-13T17:16:49.101Z,17.30
2018-09-13T17:21:28.985Z,17.75
2018-09-13T17:26:09.289Z,18.27
2018-09-13T17:30:49.882Z,18.65
2018-09-13T17:35:30.371Z,18.05
2018-09-13T17:40:10.514Z,16.12
2018-09-13T17:44:50.541Z,15.53
2018-09-13T17:49:31.161Z,16.87
2018-09-13T17:54:12.077Z,16.90
2018-09-13T17:58:52.909Z,16.70
2018-09-13T18:03:34.218Z,16.73
2018-09-13T18:08:14.125Z,15.75
2018-09-13T18:12:54.329Z,14.75
2018-09-13T18:17:34.805Z,14.75
2018-09-13T18:22:14.815Z,14.43
2018-09-13T18:26:54.687Z,14.03
2018-09-13T18:31:35.205Z,12.73
2018-09-13T18:36:15.252Z,14.20
2018-09-13T18:40:55.593Z,14.43
2018-09-13T18:45:35.452Z,14.93
2018-09-13T18:50:15.536Z,14.63
2018-09-13T18:54:55.244Z,14.30
2018-09-13T18:59:35.293Z,14.55
2018-09-13T19:04:15.093Z,14.35
2018-09-13T19:08:55.306Z,13.78
2018-09-13T19:13:34.996Z,13.95
2018-09-13T19:18:14.793Z,14.13
2018-09-13T19:22:54.656Z,14.35
2018-09-13T19:27:35.048Z,13.93
2018-09-13T19:32:16.114Z,13.95
2018-09-13T19:36:55.989Z,16.05
2018-09-13T19:41:35.989Z,13.90
2018-09-13T19:46:15.905Z,13.95
2018-09-13T19:50:55.865Z,13.38
2018-09-13T19:55:36.077Z,12.78
2018-09-13T20:00:15.925Z,13.13
2018-09-13T20:04:56.286Z,14.23
2018-09-13T20:09:36.355Z,15.75
2018-09-13T20:14:16.196Z,15.70
2018-09-13T20:18:55.899Z,16.00
2018-09-13T20:23:38.216Z,14.98
2018-09-13T20:28:18.142Z,16.12
2018-09-13T20:32:58.317Z,13.83
2018-09-13T20:37:38.074Z,14.30
2018-09-13T20:42:18.208Z,15.95
2018-09-13T20:46:57.839Z,16.12
2018-09-13T20:51:37.681Z,16.52
2018-09-13T20:56:19.280Z,14.10
2018-09-13T21:00:59.157Z,14.63
2018-09-13T21:05:39.161Z,14.60
2018-09-13T21:10:19.517Z,15.98
2018-09-13T21:14:59.637Z,16.00
2018-09-13T21:19:40.355Z,16.67
2018-09-13T21:24:20.560Z,16.97
2018-09-13T21:29:00.458Z,16.25
2018-09-13T21:33:41.076Z,16.93
2018-09-13T21:38:21.103Z,15.60
2018-09-13T21:43:00.888Z,17.55
2018-09-13T21:47:41.078Z,17.07
2018-09-13T21:52:20.955Z,16.67
2018-09-13T21:57:00.922Z,18.15
2018-09-13T22:01:41.583Z,16.48
2018-09-13T22:06:22.713Z,17.75
2018-09-13T22:11:02.777Z,18.00
2018-09-13T22:15:42.864Z,17.27
2018-09-13T22:20:23.288Z,17.32
2018-09-13T22:25:03.604Z,17.30
2018-09-13T22:29:44.244Z,18.00
2018-09-13T22:34:24.564Z,17.87
2018-09-13T22:39:06.723Z,18.70
2018-09-13T22:43:53.268Z,18.85
2018-09-13T22:48:33.124Z,19.48
2018-09-13T22:53:14.124Z,18.75
2018-09-13T22:57:54.804Z,18.65
2018-09-13T23:02:40.024Z,19.12
2018-09-13T23:07:20.052Z,19.32
2018-09-13T23:12:00.091Z,19.45
2018-09-13T23:16:40.059Z,20.27
2018-09-13T23:21:19.833Z,18.85
2018-09-13T23:25:59.685Z,19.75
2018-09-13T23:30:40.450Z,19.95
2018-09-13T23:35:20.380Z,20.85
2018-09-13T23:40:01.212Z,20.77
2018-09-13T23:44:41.591Z,20.20
2018-09-13T23:49:22.196Z,19.15
2018-09-13T23:54:02.188Z,20.77
2018-09-13T23:58:42.709Z,19.95
